sensor_id;sensor_type;location;lat;lon;timestamp;pressure;altitude;pressure_sealevel;temperature;humidity
63033;BME280;49121;38.932;-9.018;2022-12-20T00:03:36;148223.69;;;15.47;100.00
63033;BME280;49121;38.932;-9.018;2022-12-20T00:05:37;148219.88;;;15.46;100.00
63033;BME280;49121;38.932;-9.018;2022-12-20T00:07:39;148237.56;;;15.53;100.00
63033;BME280;49121;38.932;-9.018;2022-12-20T00:09:39;148233.81;;;15.51;100.00
63033;BME280;49121;38.932;-9.018;2022-12-20T00:11:40;148237.56;;;15.53;100.00
63033;BME280;49121;38.932;-9.018;2022-12-20T00:13:59;148236.31;;;15.52;100.00
63033;BME280;49121;38.932;-9.018;2022-12-20T00:16:19;148246.44;;;15.57;100.00
63033;BME280;49121;38.932;-9.018;2022-12-20T00:18:19;148245.19;;;15.56;100.00
63033;BME280;49121;38.932;-9.018;2022-12-20T00:20:20;148233.81;;;15.51;100.00
63033;BME280;49121;38.932;-9.018;2022-12-20T00:22:20;148235.06;;;15.52;100.00
63033;BME280;49121;38.932;-9.018;2022-12-20T00:24:21;148245.19;;;15.56;100.00
63033;BME280;49121;38.932;-9.018;2022-12-20T00:38:01;148237.56;;;15.53;100.00
63033;BME280;49121;38.932;-9.018;2022-12-20T00:40:04;148242.66;;;15.55;100.00
63033;BME280;49121;38.932;-9.018;2022-12-20T00:42:05;148246.44;;;15.57;100.00
63033;BME280;49121;38.932;-9.018;2022-12-20T00:46:40;148257.84;;;15.61;100.00
63033;BME280;49121;38.932;-9.018;2022-12-20T00:48:43;148261.66;;;15.63;100.00
63033;BME280;49121;38.932;-9.018;2022-12-20T00:50:43;148273.03;;;15.67;100.00
63033;BME280;49121;38.932;-9.018;2022-12-20T00:55:03;148259.13;;;15.62;100.00
63033;BME280;49121;38.932;-9.018;2022-12-20T00:57:04;148259.13;;;15.62;100.00
63033;BME280;49121;38.932;-9.018;2022-12-20T00:59:04;148255.31;;;15.60;100.00
63033;BME280;49121;38.932;-9.018;2022-12-20T01:01:06;148266.72;;;15.65;100.00
63033;BME280;49121;38.932;-9.018;2022-12-20T01:03:06;148264.16;;;15.64;100.00
63033;BME280;49121;38.932;-9.018;2022-12-20T01:05:07;148265.47;;;15.64;100.00
63033;BME280;49121;38.932;-9.018;2022-12-20T01:07:07;148269.22;;;15.66;100.00
63033;BME280;49121;38.932;-9.018;2022-12-20T01:11:46;148289.53;;;15.74;100.00
63033;BME280;49121;38.932;-9.018;2022-12-20T01:13:47;148288.28;;;15.73;100.00
63033;BME280;49121;38.932;-9.018;2022-12-20T01:15:48;148299.66;;;15.78;100.00
63033;BME280;49121;38.932;-9.018;2022-12-20T01:17:48;148299.66;;;15.78;100.00
63033;BME280;49121;38.932;-9.018;2022-12-20T01:19:50;148309.78;;;15.82;100.00
63033;BME280;49121;38.932;-9.018;2022-12-20T01:22:09;148304.72;;;15.80;100.00
63033;BME280;49121;38.932;-9.018;2022-12-20T01:24:13;148304.72;;;15.80;100.00
63033;BME280;49121;38.932;-9.018;2022-12-20T01:26:15;148299.66;;;15.78;100.00
63033;BME280;49121;38.932;-9.018;2022-12-20T01:28:16;148297.16;;;15.77;100.00
63033;BME280;49121;38.932;-9.018;2022-12-20T01:30:20;148299.66;;;15.78;100.00
63033;BME280;49121;38.932;-9.018;2022-12-20T01:32:20;148302.22;;;15.79;100.00
63033;BME280;49121;38.932;-9.018;2022-12-20T01:34:21;148298.41;;;15.78;100.00
63033;BME280;49121;38.932;-9.018;2022-12-20T01:36:22;148302.22;;;15.79;100.00
63033;BME280;49121;38.932;-9.018;2022-12-20T01:38:26;148302.22;;;15.79;100.00
63033;BME280;49121;38.932;-9.018;2022-12-20T01:40:27;148323.72;;;15.88;100.00
63033;BME280;49121;38.932;-9.018;2022-12-20T01:42:27;148312.34;;;15.83;100.00
63033;BME280;49121;38.932;-9.018;2022-12-20T01:46:30;148316.09;;;15.85;100.00
63033;BME280;49121;38.932;-9.018;2022-12-20T01:48:30;148313.59;;;15.84;100.00
63033;BME280;49121;38.932;-9.018;2022-12-20T01:50:31;148328.78;;;15.90;100.00
63033;BME280;49121;38.932;-9.018;2022-12-20T01:52:54;148356.63;;;16.01;100.00
63033;BME280;49121;38.932;-9.018;2022-12-20T01:54:57;148347.75;;;15.98;100.00
63033;BME280;49121;38.932;-9.018;2022-12-20T01:57:01;148349.06;;;15.98;100.00
63033;BME280;49121;38.932;-9.018;2022-12-20T01:59:21;148337.63;;;15.93;100.00
63033;BME280;49121;38.932;-9.018;2022-12-20T02:03:41;148347.75;;;15.98;100.00
63033;BME280;49121;38.932;-9.018;2022-12-20T02:05:43;148362.94;;;16.04;100.00
63033;BME280;49121;38.932;-9.018;2022-12-20T02:07:48;148364.22;;;16.04;100.00
63033;BME280;49121;38.932;-9.018;2022-12-20T02:09:50;148366.75;;;16.05;100.00
63033;BME280;49121;38.932;-9.018;2022-12-20T02:16:29;148361.69;;;16.03;100.00
63033;BME280;49121;38.932;-9.018;2022-12-20T02:18:34;148365.50;;;16.05;100.00
63033;BME280;49121;38.932;-9.018;2022-12-20T02:21:11;148354.06;;;16.00;100.00
63033;BME280;49121;38.932;-9.018;2022-12-20T02:27:50;148362.94;;;16.04;100.00
63033;BME280;49121;38.932;-9.018;2022-12-20T02:30:09;148379.41;;;16.10;100.00
63033;BME280;49121;38.932;-9.018;2022-12-20T02:32:24;148368.03;;;16.06;100.00
63033;BME280;49121;38.932;-9.018;2022-12-20T02:37:03;148359.13;;;16.02;100.00
63033;BME280;49121;38.932;-9.018;2022-12-20T02:39:03;148351.56;;;15.99;100.00
63033;BME280;49121;38.932;-9.018;2022-12-20T02:41:11;148345.25;;;15.97;100.00
63033;BME280;49121;38.932;-9.018;2022-12-20T02:43:14;148338.94;;;15.94;100.00
63033;BME280;49121;38.932;-9.018;2022-12-20T02:45:33;148328.78;;;15.90;100.00
63033;BME280;49121;38.932;-9.018;2022-12-20T02:47:39;148309.78;;;15.82;100.00
63033;BME280;49121;38.932;-9.018;2022-12-20T02:49:41;148299.66;;;15.78;100.00
63033;BME280;49121;38.932;-9.018;2022-12-20T02:51:45;148298.41;;;15.78;100.00
63033;BME280;49121;38.932;-9.018;2022-12-20T02:53:46;148289.53;;;15.74;100.00
63033;BME280;49121;38.932;-9.018;2022-12-20T02:58:04;148285.75;;;15.72;100.00
63033;BME280;49121;38.932;-9.018;2022-12-20T03:02:12;148281.91;;;15.71;100.00
63033;BME280;49121;38.932;-9.018;2022-12-20T03:04:13;148274.28;;;15.68;100.00
63033;BME280;49121;38.932;-9.018;2022-12-20T03:06:14;148278.09;;;15.69;100.00
63033;BME280;49121;38.932;-9.018;2022-12-20T03:08:15;148295.84;;;15.77;100.00
63033;BME280;49121;38.932;-9.018;2022-12-20T03:10:16;148294.59;;;15.76;100.00
63033;BME280;49121;38.932;-9.018;2022-12-20T03:12:17;148304.72;;;15.80;100.00
63033;BME280;49121;38.932;-9.018;2022-12-20T03:14:18;148314.84;;;15.84;100.00
63033;BME280;49121;38.932;-9.018;2022-12-20T03:16:20;148335.13;;;15.92;100.00
63033;BME280;49121;38.932;-9.018;2022-12-20T03:18:20;148352.81;;;16.00;100.00
63033;BME280;49121;38.932;-9.018;2022-12-20T03:20:21;148354.06;;;16.00;100.00
63033;BME280;49121;38.932;-9.018;2022-12-20T03:22:21;148356.63;;;16.01;100.00
63033;BME280;49121;38.932;-9.018;2022-12-20T03:26:45;148346.50;;;15.97;100.00
63033;BME280;49121;38.932;-9.018;2022-12-20T03:28:46;148365.50;;;16.05;100.00
63033;BME280;49121;38.932;-9.018;2022-12-20T03:30:51;148369.28;;;16.06;100.00
63033;BME280;49121;38.932;-9.018;2022-12-20T03:35:14;148369.28;;;16.06;100.00
63033;BME280;49121;38.932;-9.018;2022-12-20T03:37:15;148404.75;;;16.21;100.00
63033;BME280;49121;38.932;-9.018;2022-12-20T03:39:15;148402.22;;;16.20;100.00
63033;BME280;49121;38.932;-9.018;2022-12-20T03:41:16;148411.06;;;16.23;100.00
63033;BME280;49121;38.932;-9.018;2022-12-20T03:43:18;148417.38;;;16.26;100.00
63033;BME280;49121;38.932;-9.018;2022-12-20T03:45:19;148440.22;;;16.35;100.00
63033;BME280;49121;38.932;-9.018;2022-12-20T03:47:20;148438.91;;;16.34;100.00
63033;BME280;49121;38.932;-9.018;2022-12-20T03:49:21;148441.47;;;16.35;100.00
63033;BME280;49121;38.932;-9.018;2022-12-20T03:51:24;148450.34;;;16.39;100.00
63033;BME280;49121;38.932;-9.018;2022-12-20T03:56:02;148441.47;;;16.35;100.00
63033;BME280;49121;38.932;-9.018;2022-12-20T04:00:41;148464.25;;;16.45;100.00
63033;BME280;49121;38.932;-9.018;2022-12-20T04:05:24;148459.16;;;16.43;100.00
63033;BME280;49121;38.932;-9.018;2022-12-20T04:07:25;148473.13;;;16.48;100.00
63033;BME280;49121;38.932;-9.018;2022-12-20T04:09:26;148497.16;;;16.58;100.00
63033;BME280;49121;38.932;-9.018;2022-12-20T04:11:31;148489.56;;;16.55;100.00
63033;BME280;49121;38.932;-9.018;2022-12-20T04:13:46;148521.25;;;16.68;100.00
63033;BME280;49121;38.932;-9.018;2022-12-20T04:15:46;148530.13;;;16.71;100.00
63033;BME280;49121;38.932;-9.018;2022-12-20T04:17:48;148554.22;;;16.81;100.00
63033;BME280;49121;38.932;-9.018;2022-12-20T04:19:49;148541.50;;;16.76;100.00
63033;BME280;49121;38.932;-9.018;2022-12-20T04:21:51;148533.88;;;16.73;100.00
63033;BME280;49121;38.932;-9.018;2022-12-20T04:24:10;148549.09;;;16.79;100.00
63033;BME280;49121;38.932;-9.018;2022-12-20T04:26:16;148540.25;;;16.75;100.00
63033;BME280;49121;38.932;-9.018;2022-12-20T04:28:18;148526.31;;;16.70;100.00
63033;BME280;49121;38.932;-9.018;2022-12-20T04:30:19;148528.81;;;16.71;100.00
63033;BME280;49121;38.932;-9.018;2022-12-20T04:36:58;148536.44;;;16.74;100.00
63033;BME280;49121;38.932;-9.018;2022-12-20T04:41:55;148546.59;;;16.78;100.00
63033;BME280;49121;38.932;-9.018;2022-12-20T04:43:56;148588.44;;;16.95;100.00
63033;BME280;49121;38.932;-9.018;2022-12-20T04:46:01;148566.91;;;16.86;100.00
63033;BME280;49121;38.932;-9.018;2022-12-20T04:48:02;148560.53;;;16.84;100.00
63033;BME280;49121;38.932;-9.018;2022-12-20T04:50:09;148537.69;;;16.74;100.00
63033;BME280;49121;38.932;-9.018;2022-12-20T04:54:48;148521.25;;;16.68;100.00
63033;BME280;49121;38.932;-9.018;2022-12-20T05:01:39;148526.31;;;16.70;100.00
63033;BME280;49121;38.932;-9.018;2022-12-20T05:03:49;148521.25;;;16.68;100.00
63033;BME280;49121;38.932;-9.018;2022-12-20T05:05:50;148522.50;;;16.68;100.00
63033;BME280;49121;38.932;-9.018;2022-12-20T05:07:51;148530.13;;;16.71;100.00
63033;BME280;49121;38.932;-9.018;2022-12-20T05:14:35;148521.25;;;16.68;100.00
63033;BME280;49121;38.932;-9.018;2022-12-20T05:16:35;148507.28;;;16.62;100.00
63033;BME280;49121;38.932;-9.018;2022-12-20T05:18:36;148514.91;;;16.65;100.00
63033;BME280;49121;38.932;-9.018;2022-12-20T05:20:39;148500.97;;;16.60;100.00
63033;BME280;49121;38.932;-9.018;2022-12-20T05:22:40;148511.09;;;16.64;100.00
63033;BME280;49121;38.932;-9.018;2022-12-20T05:24:59;148512.34;;;16.64;100.00
63033;BME280;49121;38.932;-9.018;2022-12-20T05:29:38;148511.09;;;16.64;100.00
63033;BME280;49121;38.932;-9.018;2022-12-20T05:31:38;148512.34;;;16.64;100.00
63033;BME280;49121;38.932;-9.018;2022-12-20T05:33:39;148520.00;;;16.67;100.00
63033;BME280;49121;38.932;-9.018;2022-12-20T05:35:41;148502.22;;;16.60;100.00
63033;BME280;49121;38.932;-9.018;2022-12-20T05:38:00;148499.72;;;16.59;100.00
63033;BME280;49121;38.932;-9.018;2022-12-20T05:40:02;148493.38;;;16.56;100.00
63033;BME280;49121;38.932;-9.018;2022-12-20T05:42:04;148490.84;;;16.55;100.00
63033;BME280;49121;38.932;-9.018;2022-12-20T05:48:51;148498.47;;;16.59;100.00
63033;BME280;49121;38.932;-9.018;2022-12-20T05:53:25;148484.50;;;16.53;100.00
63033;BME280;49121;38.932;-9.018;2022-12-20T05:55:29;148479.44;;;16.51;100.00
63033;BME280;49121;38.932;-9.018;2022-12-20T05:57:30;148493.38;;;16.56;100.00
63033;BME280;49121;38.932;-9.018;2022-12-20T05:59:30;148478.19;;;16.50;100.00
63033;BME280;49121;38.932;-9.018;2022-12-20T06:01:31;148479.44;;;16.51;100.00
63033;BME280;49121;38.932;-9.018;2022-12-20T06:03:34;148488.31;;;16.54;100.00
63033;BME280;49121;38.932;-9.018;2022-12-20T06:05:38;148476.94;;;16.50;100.00
63033;BME280;49121;38.932;-9.018;2022-12-20T06:07:39;148466.81;;;16.46;100.00
63033;BME280;49121;38.932;-9.018;2022-12-20T06:09:58;148456.66;;;16.42;100.00
63033;BME280;49121;38.932;-9.018;2022-12-20T06:14:37;148471.88;;;16.48;100.00
63033;BME280;49121;38.932;-9.018;2022-12-20T06:16:38;148469.31;;;16.47;100.00
63033;BME280;49121;38.932;-9.018;2022-12-20T06:18:40;148471.88;;;16.48;100.00
63033;BME280;49121;38.932;-9.018;2022-12-20T06:20:41;148468.06;;;16.46;100.00
63033;BME280;49121;38.932;-9.018;2022-12-20T06:25:23;148468.06;;;16.46;100.00
63033;BME280;49121;38.932;-9.018;2022-12-20T06:27:26;148479.44;;;16.51;100.00
63033;BME280;49121;38.932;-9.018;2022-12-20T06:29:43;148494.66;;;16.57;100.00
63033;BME280;49121;38.932;-9.018;2022-12-20T06:31:51;148356.63;;;16.01;100.00
63033;BME280;49121;38.932;-9.018;2022-12-20T06:36:29;148185.75;;;15.32;100.00
63033;BME280;49121;38.932;-9.018;2022-12-20T06:38:30;148173.06;;;15.27;100.00
63033;BME280;49121;38.932;-9.018;2022-12-20T06:40:31;148168.00;;;15.25;100.00
63033;BME280;49121;38.932;-9.018;2022-12-20T06:42:34;148173.06;;;15.27;100.00
63033;BME280;49121;38.932;-9.018;2022-12-20T06:44:34;148180.66;;;15.30;100.00
63033;BME280;49121;38.932;-9.018;2022-12-20T06:46:35;148174.31;;;15.27;100.00
63033;BME280;49121;38.932;-9.018;2022-12-20T06:48:36;148188.25;;;15.33;100.00
63033;BME280;49121;38.932;-9.018;2022-12-20T06:50:38;148192.06;;;15.34;100.00
63033;BME280;49121;38.932;-9.018;2022-12-20T06:55:16;148176.88;;;15.28;100.00
63033;BME280;49121;38.932;-9.018;2022-12-20T06:57:18;148183.19;;;15.31;100.00
63033;BME280;49121;38.932;-9.018;2022-12-20T06:59:21;148175.59;;;15.28;100.00
63033;BME280;49121;38.932;-9.018;2022-12-20T07:01:40;148189.50;;;15.33;100.00
63033;BME280;49121;38.932;-9.018;2022-12-20T07:03:55;148197.13;;;15.37;100.00
63033;BME280;49121;38.932;-9.018;2022-12-20T07:05:56;148222.44;;;15.47;100.00
63033;BME280;49121;38.932;-9.018;2022-12-20T07:07:56;148240.13;;;15.54;100.00
63033;BME280;49121;38.932;-9.018;2022-12-20T07:09:57;148254.06;;;15.60;100.00
63033;BME280;49121;38.932;-9.018;2022-12-20T07:11:58;148250.25;;;15.58;100.00
63033;BME280;49121;38.932;-9.018;2022-12-20T07:13:59;148241.38;;;15.54;100.00
63033;BME280;49121;38.932;-9.018;2022-12-20T07:16:02;148233.81;;;15.51;100.00
63033;BME280;49121;38.932;-9.018;2022-12-20T07:18:03;148224.94;;;15.48;100.00
63033;BME280;49121;38.932;-9.018;2022-12-20T07:20:04;148237.56;;;15.53;100.00
63033;BME280;49121;38.932;-9.018;2022-12-20T07:22:06;148231.25;;;15.50;100.00
63033;BME280;49121;38.932;-9.018;2022-12-20T07:24:07;148232.50;;;15.51;100.00
63033;BME280;49121;38.932;-9.018;2022-12-20T07:26:08;148237.56;;;15.53;100.00
63033;BME280;49121;38.932;-9.018;2022-12-20T07:28:08;148232.50;;;15.51;100.00
63033;BME280;49121;38.932;-9.018;2022-12-20T07:30:09;148249.00;;;15.58;100.00
63033;BME280;49121;38.932;-9.018;2022-12-20T07:32:10;148261.66;;;15.63;100.00
63033;BME280;49121;38.932;-9.018;2022-12-20T07:34:11;148269.22;;;15.66;100.00
63033;BME280;49121;38.932;-9.018;2022-12-20T07:36:11;148259.13;;;15.62;100.00
63033;BME280;49121;38.932;-9.018;2022-12-20T07:38:12;148247.72;;;15.57;100.00
63033;BME280;49121;38.932;-9.018;2022-12-20T07:40:13;148240.13;;;15.54;100.00
63033;BME280;49121;38.932;-9.018;2022-12-20T07:42:18;148267.97;;;15.65;100.00
63033;BME280;49121;38.932;-9.018;2022-12-20T07:44:24;148261.66;;;15.63;100.00
63033;BME280;49121;38.932;-9.018;2022-12-20T07:46:24;148256.59;;;15.61;100.00
63033;BME280;49121;38.932;-9.018;2022-12-20T07:48:25;148240.13;;;15.54;100.00
63033;BME280;49121;38.932;-9.018;2022-12-20T07:50:26;148231.25;;;15.50;100.00
63033;BME280;49121;38.932;-9.018;2022-12-20T07:52:27;148242.66;;;15.55;100.00
63033;BME280;49121;38.932;-9.018;2022-12-20T07:54:30;148243.94;;;15.56;100.00
63033;BME280;49121;38.932;-9.018;2022-12-20T07:56:50;148243.94;;;15.56;100.00
63033;BME280;49121;38.932;-9.018;2022-12-20T07:58:51;148254.06;;;15.60;100.00
63033;BME280;49121;38.932;-9.018;2022-12-20T08:00:55;148260.41;;;15.62;100.00
63033;BME280;49121;38.932;-9.018;2022-12-20T08:02:58;148274.28;;;15.68;100.00
63033;BME280;49121;38.932;-9.018;2022-12-20T08:05:02;148264.16;;;15.64;100.00
63033;BME280;49121;38.932;-9.018;2022-12-20T08:07:02;148270.53;;;15.66;100.00
63033;BME280;49121;38.932;-9.018;2022-12-20T08:11:22;148270.53;;;15.66;100.00
63033;BME280;49121;38.932;-9.018;2022-12-20T08:13:23;148278.09;;;15.69;100.00
63033;BME280;49121;38.932;-9.018;2022-12-20T08:15:24;148280.66;;;15.70;100.00
63033;BME280;49121;38.932;-9.018;2022-12-20T08:17:24;148284.47;;;15.72;100.00
63033;BME280;49121;38.932;-9.018;2022-12-20T08:19:25;148289.53;;;15.74;100.00
63033;BME280;49121;38.932;-9.018;2022-12-20T08:28:23;148335.13;;;15.92;100.00
63033;BME280;49121;38.932;-9.018;2022-12-20T08:30:23;148338.94;;;15.94;100.00
63033;BME280;49121;38.932;-9.018;2022-12-20T08:32:24;148338.94;;;15.94;100.00
63033;BME280;49121;38.932;-9.018;2022-12-20T08:34:25;148349.06;;;15.98;100.00
63033;BME280;49121;38.932;-9.018;2022-12-20T08:36:26;148357.88;;;16.02;100.00
63033;BME280;49121;38.932;-9.018;2022-12-20T08:38:27;148356.63;;;16.01;100.00
63033;BME280;49121;38.932;-9.018;2022-12-20T08:40:28;148373.09;;;16.08;100.00
63033;BME280;49121;38.932;-9.018;2022-12-20T08:42:28;148385.72;;;16.13;100.00
63033;BME280;49121;38.932;-9.018;2022-12-20T08:44:29;148395.84;;;16.17;100.00
63033;BME280;49121;38.932;-9.018;2022-12-20T08:46:29;148390.78;;;16.15;100.00
63033;BME280;49121;38.932;-9.018;2022-12-20T08:48:34;148392.09;;;16.15;100.00
63033;BME280;49121;38.932;-9.018;2022-12-20T08:50:35;148412.31;;;16.24;100.00
63033;BME280;49121;38.932;-9.018;2022-12-20T08:52:35;148404.75;;;16.21;100.00
63033;BME280;49121;38.932;-9.018;2022-12-20T08:54:36;148419.94;;;16.27;100.00
63033;BME280;49121;38.932;-9.018;2022-12-20T08:56:36;148428.81;;;16.30;100.00
63033;BME280;49121;38.932;-9.018;2022-12-20T08:58:37;148465.53;;;16.45;100.00
63033;BME280;49121;38.932;-9.018;2022-12-20T09:00:39;148513.66;;;16.65;100.00
63033;BME280;49121;38.932;-9.018;2022-12-20T09:02:39;148532.63;;;16.72;100.00
63033;BME280;49121;38.932;-9.018;2022-12-20T09:04:40;148573.22;;;16.89;100.00
63033;BME280;49121;38.932;-9.018;2022-12-20T09:06:41;148589.69;;;16.95;100.00
63033;BME280;49121;38.932;-9.018;2022-12-20T09:08:41;148634.03;;;17.13;100.00
63033;BME280;49121;38.932;-9.018;2022-12-20T09:13:19;148613.78;;;17.05;100.00
63033;BME280;49121;38.932;-9.018;2022-12-20T09:15:20;148602.34;;;17.01;100.00
63033;BME280;49121;38.932;-9.018;2022-12-20T09:17:21;148593.50;;;16.97;100.00
63033;BME280;49121;38.932;-9.018;2022-12-20T09:19:21;148616.28;;;17.06;100.00
63033;BME280;49121;38.932;-9.018;2022-12-20T09:21:22;148612.47;;;17.05;100.00
63033;BME280;49121;38.932;-9.018;2022-12-20T09:23:23;148649.22;;;17.20;100.00
63033;BME280;49121;38.932;-9.018;2022-12-20T09:25:23;148679.66;;;17.32;100.00
63033;BME280;49121;38.932;-9.018;2022-12-20T09:27:24;148748.09;;;17.60;100.00
63033;BME280;49121;38.932;-9.018;2022-12-20T09:29:24;148803.88;;;17.82;100.00
63033;BME280;49121;38.932;-9.018;2022-12-20T09:31:25;148872.34;;;18.10;100.00
63033;BME280;49121;38.932;-9.018;2022-12-20T09:33:26;148933.22;;;18.34;100.00
63033;BME280;49121;38.932;-9.018;2022-12-20T09:35:27;148963.66;;;18.47;100.00
63033;BME280;49121;38.932;-9.018;2022-12-20T09:37:31;148966.19;;;18.48;100.00
63033;BME280;49121;38.932;-9.018;2022-12-20T09:39:32;149013.09;;;18.67;100.00
63033;BME280;49121;38.932;-9.018;2022-12-20T09:41:39;149025.78;;;18.72;100.00
63033;BME280;49121;38.932;-9.018;2022-12-20T09:43:56;148921.81;;;18.30;100.00
63033;BME280;49121;38.932;-9.018;2022-12-20T09:45:58;148887.56;;;18.16;100.00
63033;BME280;49121;38.932;-9.018;2022-12-20T09:47:59;148911.66;;;18.26;100.00
63033;BME280;49121;38.932;-9.018;2022-12-20T09:50:00;148845.72;;;17.99;100.00
63033;BME280;49121;38.932;-9.018;2022-12-20T09:56:25;148840.63;;;17.97;100.00
63033;BME280;49121;38.932;-9.018;2022-12-20T09:58:36;148834.31;;;17.94;100.00
63033;BME280;49121;38.932;-9.018;2022-12-20T10:00:43;148814.03;;;17.86;100.00
63033;BME280;49121;38.932;-9.018;2022-12-20T10:02:44;148767.06;;;17.67;100.00
63033;BME280;49121;38.932;-9.018;2022-12-20T10:04:45;148773.44;;;17.70;100.00
63033;BME280;49121;38.932;-9.018;2022-12-20T10:10:54;148768.38;;;17.68;100.00
63033;BME280;49121;38.932;-9.018;2022-12-20T10:13:01;148759.47;;;17.64;100.00
63033;BME280;49121;38.932;-9.018;2022-12-20T10:17:04;148770.88;;;17.69;100.00
63033;BME280;49121;38.932;-9.018;2022-12-20T10:25:41;148801.31;;;17.81;100.00
63033;BME280;49121;38.932;-9.018;2022-12-20T10:27:43;148827.97;;;17.92;100.00
63033;BME280;49121;38.932;-9.018;2022-12-20T10:29:44;148772.13;;;17.69;100.00
63033;BME280;49121;38.932;-9.018;2022-12-20T10:31:48;148748.09;;;17.60;100.00
63033;BME280;49121;38.932;-9.018;2022-12-20T10:33:49;148736.69;;;17.55;100.00
63033;BME280;49121;38.932;-9.018;2022-12-20T10:35:50;148748.09;;;17.60;100.00
63033;BME280;49121;38.932;-9.018;2022-12-20T10:38:01;148763.28;;;17.66;100.00
63033;BME280;49121;38.932;-9.018;2022-12-20T10:40:03;148777.22;;;17.71;100.00
63033;BME280;49121;38.932;-9.018;2022-12-20T10:42:08;148762.03;;;17.65;100.00
63033;BME280;49121;38.932;-9.018;2022-12-20T10:44:25;148748.09;;;17.60;100.00
63033;BME280;49121;38.932;-9.018;2022-12-20T10:46:36;148764.56;;;17.66;100.00
63033;BME280;49121;38.932;-9.018;2022-12-20T10:48:42;148717.66;;;17.47;100.00
63033;BME280;49121;38.932;-9.018;2022-12-20T10:50:42;148722.72;;;17.49;100.00
63033;BME280;49121;38.932;-9.018;2022-12-20T10:57:27;148717.66;;;17.47;100.00
63033;BME280;49121;38.932;-9.018;2022-12-20T10:59:35;148732.88;;;17.53;100.00
63033;BME280;49121;38.932;-9.018;2022-12-20T11:01:37;148741.75;;;17.57;100.00
63033;BME280;49121;38.932;-9.018;2022-12-20T11:05:56;148778.50;;;17.72;100.00
63033;BME280;49121;38.932;-9.018;2022-12-20T11:08:00;148778.50;;;17.72;100.00
63033;BME280;49121;38.932;-9.018;2022-12-20T11:12:13;148801.31;;;17.81;100.00
63033;BME280;49121;38.932;-9.018;2022-12-20T11:14:14;148802.56;;;17.82;100.00
63033;BME280;49121;38.932;-9.018;2022-12-20T11:16:25;148833.06;;;17.94;100.00
63033;BME280;49121;38.932;-9.018;2022-12-20T11:20:55;148914.19;;;18.27;100.00
63033;BME280;49121;38.932;-9.018;2022-12-20T11:23:15;148964.91;;;18.47;100.00
63033;BME280;49121;38.932;-9.018;2022-12-20T11:25:24;149019.44;;;18.69;100.00
63033;BME280;49121;38.932;-9.018;2022-12-20T11:31:37;149108.28;;;19.05;100.00
63033;BME280;49121;38.932;-9.018;2022-12-20T11:35:53;149181.88;;;19.35;100.00
63033;BME280;49121;38.932;-9.018;2022-12-20T11:38:00;149214.84;;;19.48;100.00
63033;BME280;49121;38.932;-9.018;2022-12-20T11:40:10;149230.09;;;19.54;100.00
63033;BME280;49121;38.932;-9.018;2022-12-20T11:51:23;149365.94;;;20.09;97.15
63033;BME280;49121;38.932;-9.018;2022-12-20T11:55:30;149273.28;;;19.72;95.95
63033;BME280;49121;38.932;-9.018;2022-12-20T11:57:34;149288.53;;;19.78;94.23
63033;BME280;49121;38.932;-9.018;2022-12-20T11:59:41;149259.25;;;19.66;95.18
63033;BME280;49121;38.932;-9.018;2022-12-20T12:01:45;149255.50;;;19.65;98.80
63033;BME280;49121;38.932;-9.018;2022-12-20T12:04:08;149256.75;;;19.65;96.68
63033;BME280;49121;38.932;-9.018;2022-12-20T12:06:21;149219.94;;;19.50;99.61
63033;BME280;49121;38.932;-9.018;2022-12-20T12:08:24;149192.03;;;19.39;99.10
63033;BME280;49121;38.932;-9.018;2022-12-20T12:10:29;149172.97;;;19.31;98.12
63033;BME280;49121;38.932;-9.018;2022-12-20T12:12:32;149164.09;;;19.28;97.41
63033;BME280;49121;38.932;-9.018;2022-12-20T12:14:45;149161.56;;;19.27;99.57
63033;BME280;49121;38.932;-9.018;2022-12-20T12:16:49;149174.25;;;19.32;99.78
63033;BME280;49121;38.932;-9.018;2022-12-20T12:18:50;149193.28;;;19.39;98.54
63033;BME280;49121;38.932;-9.018;2022-12-20T12:23:06;149188.22;;;19.37;97.31
63033;BME280;49121;38.932;-9.018;2022-12-20T12:25:13;149199.63;;;19.42;98.47
63033;BME280;49121;38.932;-9.018;2022-12-20T12:27:25;149230.09;;;19.54;98.24
63033;BME280;49121;38.932;-9.018;2022-12-20T12:29:27;149240.25;;;19.58;98.40
63033;BME280;49121;38.932;-9.018;2022-12-20T12:33:52;149261.81;;;19.67;97.61
63033;BME280;49121;38.932;-9.018;2022-12-20T12:38:29;149298.69;;;19.82;96.05
63033;BME280;49121;38.932;-9.018;2022-12-20T12:45:45;149350.72;;;20.03;93.46
63033;BME280;49121;38.932;-9.018;2022-12-20T12:50:08;149277.09;;;19.73;94.99
63033;BME280;49121;38.932;-9.018;2022-12-20T12:52:27;149244.03;;;19.60;95.52
63033;BME280;49121;38.932;-9.018;2022-12-20T12:56:29;149166.66;;;19.29;95.54
63033;BME280;49121;38.932;-9.018;2022-12-20T12:58:31;149175.53;;;19.32;95.12
63033;BME280;49121;38.932;-9.018;2022-12-20T13:03:12;149198.38;;;19.41;94.64
63033;BME280;49121;38.932;-9.018;2022-12-20T13:09:35;149162.81;;;19.27;98.19
63033;BME280;49121;38.932;-9.018;2022-12-20T13:11:39;149189.47;;;19.38;96.19
63033;BME280;49121;38.932;-9.018;2022-12-20T13:13:40;149217.38;;;19.49;94.40
63033;BME280;49121;38.932;-9.018;2022-12-20T13:19:50;149228.84;;;19.54;92.99
63033;BME280;49121;38.932;-9.018;2022-12-20T13:21:58;149252.94;;;19.64;91.65
63033;BME280;49121;38.932;-9.018;2022-12-20T13:24:37;149264.34;;;19.68;90.67
63033;BME280;49121;38.932;-9.018;2022-12-20T13:26:54;149292.34;;;19.79;89.71
63033;BME280;49121;38.932;-9.018;2022-12-20T13:28:55;149273.28;;;19.72;89.66
63033;BME280;49121;38.932;-9.018;2022-12-20T13:33:24;149228.84;;;19.54;89.17